createdAt,value
2024-01-18T00:00:43.691Z,14.73
2024-01-18T00:01:33.651Z,14.72
2024-01-18T00:02:23.668Z,14.72
2024-01-18T00:03:13.760Z,14.71
2024-01-18T00:04:03.885Z,14.72
2024-01-18T00:04:53.796Z,14.72
2024-01-18T00:05:43.911Z,14.71
2024-01-18T00:06:34.032Z,14.72
2024-01-18T00:07:24.057Z,14.73
2024-01-18T00:08:14.058Z,14.73
2024-01-18T00:09:04.089Z,14.73
2024-01-18T00:09:54.156Z,14.72
2024-01-18T00:10:44.249Z,14.73
2024-01-18T00:11:34.276Z,14.73
2024-01-18T00:12:24.637Z,14.74
2024-01-18T00:13:14.673Z,14.74
2024-01-18T00:14:04.717Z,14.72
2024-01-18T00:14:54.770Z,14.72
2024-01-18T00:15:44.892Z,14.72
2024-01-18T00:16:34.874Z,14.73
2024-01-18T00:17:24.990Z,14.73
2024-01-18T00:18:15.149Z,14.72
2024-01-18T00:19:05.188Z,14.72
2024-01-18T00:19:55.145Z,14.73
2024-01-18T00:20:45.192Z,14.72
2024-01-18T00:21:35.539Z,14.74
2024-01-18T00:22:25.536Z,14.73
2024-01-18T00:23:15.604Z,14.72
2024-01-18T00:24:05.679Z,14.71
2024-01-18T00:24:55.713Z,14.72
2024-01-18T00:25:45.782Z,14.71
2024-01-18T00:26:35.808Z,14.72
2024-01-18T00:27:25.915Z,14.71
2024-01-18T00:28:15.944Z,14.71
2024-01-18T00:29:05.986Z,14.74
2024-01-18T00:29:56.043Z,14.74
2024-01-18T00:30:46.152Z,14.73
2024-01-18T00:31:36.187Z,14.74
2024-01-18T00:32:26.186Z,14.74
2024-01-18T00:33:16.350Z,14.74
2024-01-18T00:34:06.350Z,14.74
2024-01-18T00:34:56.413Z,14.74
2024-01-18T00:35:46.503Z,14.76
2024-01-18T00:36:36.522Z,14.75
2024-01-18T00:37:26.583Z,14.75
2024-01-18T00:38:16.660Z,14.75
2024-01-18T00:39:06.665Z,14.76
2024-01-18T00:39:56.734Z,14.74
2024-01-18T00:40:46.801Z,14.74
2024-01-18T00:41:36.872Z,14.75
2024-01-18T00:42:26.982Z,14.75
2024-01-18T00:43:17.015Z,14.75
2024-01-18T00:44:07.054Z,14.75
2024-01-18T00:44:57.130Z,14.75
2024-01-18T00:45:47.172Z,14.75
2024-01-18T00:46:37.180Z,14.76
2024-01-18T00:47:27.246Z,14.76
2024-01-18T00:48:17.479Z,14.75
2024-01-18T00:49:07.403Z,14.76
2024-01-18T00:49:57.549Z,14.75
2024-01-18T00:50:47.509Z,14.75
2024-01-18T00:51:37.629Z,14.74
2024-01-18T00:52:27.592Z,14.75
2024-01-18T00:53:17.704Z,14.75
2024-01-18T00:54:07.825Z,14.75
2024-01-18T00:54:57.789Z,14.75
2024-01-18T00:55:47.866Z,14.74
2024-01-18T00:56:37.897Z,14.73
2024-01-18T00:57:27.981Z,14.73
2024-01-18T00:58:18.025Z,14.74
2024-01-18T00:59:08.055Z,14.73
2024-01-18T00:59:58.160Z,14.75
2024-01-18T01:00:48.204Z,14.75
2024-01-18T01:01:38.263Z,14.75
2024-01-18T01:02:28.340Z,14.74
2024-01-18T01:03:18.444Z,14.74
2024-01-18T01:04:08.503Z,14.73
2024-01-18T01:04:58.519Z,14.74
2024-01-18T01:05:48.609Z,14.74
2024-01-18T01:06:38.644Z,14.74
2024-01-18T01:07:28.697Z,14.75
2024-01-18T01:08:18.859Z,14.76
2024-01-18T01:09:08.845Z,14.77
2024-01-18T01:09:58.891Z,14.76
2024-01-18T01:10:48.930Z,14.75
2024-01-18T01:11:38.970Z,14.76
2024-01-18T01:12:29.114Z,14.75
2024-01-18T01:13:19.081Z,14.75
2024-01-18T01:14:09.115Z,14.74
2024-01-18T01:14:59.203Z,14.74
2024-01-18T01:15:49.418Z,14.75
2024-01-18T01:16:39.274Z,14.75
2024-01-18T01:17:29.631Z,14.73
2024-01-18T01:18:19.819Z,14.74
2024-01-18T01:19:09.827Z,14.75
2024-01-18T01:20:02.711Z,14.75
2024-01-18T01:20:50.833Z,14.73
2024-01-18T01:21:39.920Z,14.74
2024-01-18T01:22:29.950Z,14.74
2024-01-18T01:23:20.012Z,14.74
2024-01-18T01:24:10.058Z,14.74
2024-01-18T01:25:00.202Z,14.74
2024-01-18T01:25:50.196Z,14.74
2024-01-18T01:26:40.363Z,14.75
2024-01-18T01:27:30.543Z,14.75
2024-01-18T01:28:20.490Z,14.75
2024-01-18T01:29:10.520Z,14.74
2024-01-18T01:30:00.601Z,14.74
2024-01-18T01:30:50.637Z,14.73
2024-01-18T01:31:40.682Z,14.73
2024-01-18T01:32:30.735Z,14.74
2024-01-18T01:33:21.004Z,14.73
2024-01-18T01:34:10.945Z,14.74
2024-01-18T01:35:00.872Z,14.73
2024-01-18T01:35:50.944Z,14.75
2024-01-18T01:36:41.096Z,14.74
2024-01-18T01:37:31.036Z,14.74
2024-01-18T01:38:21.098Z,14.74
2024-01-18T01:39:11.151Z,14.74
2024-01-18T01:40:01.211Z,14.73
2024-01-18T01:40:51.273Z,14.74
2024-01-18T01:41:41.361Z,14.73
2024-01-18T01:42:31.451Z,14.74
2024-01-18T01:43:21.450Z,14.74
2024-01-18T01:44:11.490Z,14.74
2024-01-18T01:45:01.674Z,14.74
2024-01-18T01:45:51.610Z,14.74
2024-01-18T01:46:41.683Z,14.73
2024-01-18T01:47:31.842Z,14.72
2024-01-18T01:48:21.974Z,14.72
2024-01-18T01:49:11.934Z,14.72
2024-01-18T01:50:01.990Z,14.72
2024-01-18T01:50:51.970Z,14.72
2024-01-18T01:51:42.066Z,14.72
2024-01-18T01:52:33.068Z,14.73
2024-01-18T01:53:22.259Z,14.73
2024-01-18T01:54:12.433Z,14.74
2024-01-18T01:55:02.356Z,14.74
2024-01-18T01:55:52.439Z,14.73
2024-01-18T01:56:42.500Z,14.74
2024-01-18T01:57:32.665Z,14.73
2024-01-18T01:58:22.661Z,14.73
2024-01-18T01:59:12.696Z,14.72
2024-01-18T02:00:02.827Z,14.73
2024-01-18T02:00:52.895Z,14.73
2024-01-18T02:01:42.841Z,14.74
2024-01-18T02:02:33.178Z,14.73
2024-01-18T02:03:23.271Z,14.73
2024-01-18T02:04:13.362Z,14.72
2024-01-18T02:05:03.344Z,14.72
2024-01-18T02:05:53.487Z,14.71
2024-01-18T02:06:43.474Z,14.71
2024-01-18T02:07:33.469Z,14.71
2024-01-18T02:08:23.573Z,14.71
2024-01-18T02:09:13.649Z,14.71
2024-01-18T02:10:03.815Z,14.71
2024-01-18T02:10:54.761Z,14.71
2024-01-18T02:11:43.768Z,14.70
2024-01-18T02:12:33.855Z,14.70
2024-01-18T02:13:23.927Z,14.72
2024-01-18T02:14:13.926Z,14.72
2024-01-18T02:15:04.117Z,14.72
2024-01-18T02:15:54.011Z,14.71
2024-01-18T02:16:44.051Z,14.71
2024-01-18T02:17:34.147Z,14.72
2024-01-18T02:18:24.589Z,14.71
2024-01-18T02:19:14.894Z,14.72
2024-01-18T02:20:04.532Z,14.72
2024-01-18T02:20:54.573Z,14.73
2024-01-18T02:21:44.598Z,14.71
2024-01-18T02:22:34.671Z,14.71
2024-01-18T02:23:24.730Z,14.72
2024-01-18T02:24:14.797Z,14.72
2024-01-18T02:25:04.785Z,14.73
2024-01-18T02:25:54.855Z,14.72
2024-01-18T02:26:44.880Z,14.71
2024-01-18T02:27:35.110Z,14.72
2024-01-18T02:28:25.042Z,14.72
2024-01-18T02:29:15.106Z,14.73
2024-01-18T02:30:05.120Z,14.72
2024-01-18T02:30:55.221Z,14.72
2024-01-18T02:31:45.343Z,14.71
2024-01-18T02:32:35.427Z,14.71
2024-01-18T02:33:25.606Z,14.70
2024-01-18T02:34:15.567Z,14.71
2024-01-18T02:35:05.499Z,14.70
2024-01-18T02:35:55.634Z,14.70
2024-01-18T02:36:45.693Z,14.71
2024-01-18T02:37:35.674Z,14.71
2024-01-18T02:38:25.901Z,14.72
2024-01-18T02:39:15.974Z,14.72
2024-01-18T02:40:05.995Z,14.72
2024-01-18T02:40:56.088Z,14.72
2024-01-18T02:41:46.104Z,14.73
2024-01-18T02:42:36.251Z,14.71
2024-01-18T02:43:26.246Z,14.71
2024-01-18T02:44:16.272Z,14.71
2024-01-18T02:45:06.518Z,14.71
2024-01-18T02:45:56.419Z,14.71
2024-01-18T02:46:46.448Z,14.71
2024-01-18T02:47:36.646Z,14.72
2024-01-18T02:48:26.607Z,14.70
2024-01-18T02:49:16.682Z,14.70
2024-01-18T02:50:06.697Z,14.71
2024-01-18T02:50:56.767Z,14.69
2024-01-18T02:51:46.993Z,14.70
2024-01-18T02:52:37.067Z,14.70
2024-01-18T02:53:27.167Z,14.71
2024-01-18T02:54:17.484Z,14.70
2024-01-18T02:55:07.481Z,14.71
2024-01-18T02:55:57.557Z,14.71
2024-01-18T02:56:47.630Z,14.71
2024-01-18T02:57:37.837Z,14.71
2024-01-18T02:58:27.780Z,14.71
2024-01-18T02:59:17.812Z,14.71
2024-01-18T03:00:07.920Z,14.71
2024-01-18T03:00:57.989Z,14.70
2024-01-18T03:01:47.952Z,14.70
2024-01-18T03:02:38.030Z,14.70
2024-01-18T03:03:28.443Z,14.69
2024-01-18T03:04:18.425Z,14.70
2024-01-18T03:05:08.449Z,14.70
2024-01-18T03:05:58.555Z,14.71
2024-01-18T03:06:48.623Z,14.68
2024-01-18T03:07:38.664Z,14.70
2024-01-18T03:08:28.735Z,14.70
2024-01-18T03:09:18.805Z,14.70
2024-01-18T03:10:08.813Z,14.70
2024-01-18T03:10:58.879Z,14.70
2024-01-18T03:11:48.949Z,14.70
2024-01-18T03:12:39.229Z,14.71
2024-01-18T03:13:29.277Z,14.70
2024-01-18T03:14:19.300Z,14.70
2024-01-18T03:15:09.389Z,14.70
2024-01-18T03:15:59.374Z,14.70
2024-01-18T03:16:49.428Z,14.71
2024-01-18T03:17:39.507Z,14.71
2024-01-18T03:18:29.616Z,14.70
2024-01-18T03:19:19.696Z,14.70
2024-01-18T03:20:09.684Z,14.71
2024-01-18T03:20:59.830Z,14.71
2024-01-18T03:21:49.829Z,14.71
2024-01-18T03:22:40.153Z,14.70
2024-01-18T03:23:30.220Z,14.71
2024-01-18T03:24:20.315Z,14.70
2024-01-18T03:25:10.257Z,14.71
2024-01-18T03:26:00.404Z,14.72
2024-01-18T03:26:50.389Z,14.70
2024-01-18T03:27:40.592Z,14.70
2024-01-18T03:28:30.495Z,14.70
2024-01-18T03:29:20.569Z,14.70
2024-01-18T03:30:10.618Z,14.71
2024-01-18T03:31:00.637Z,14.71
2024-01-18T03:31:50.976Z,14.70
2024-01-18T03:32:41.055Z,14.70
2024-01-18T03:33:31.118Z,14.70
2024-01-18T03:34:21.206Z,14.71
2024-01-18T03:35:11.174Z,14.70
2024-01-18T03:36:01.380Z,14.72
2024-01-18T03:36:51.366Z,14.70
2024-01-18T03:37:41.371Z,14.70
2024-01-18T03:38:31.469Z,14.70
2024-01-18T03:39:21.533Z,14.70
2024-01-18T03:40:11.526Z,14.70
2024-01-18T03:41:01.620Z,14.71
2024-01-18T03:41:51.665Z,14.69
2024-01-18T03:42:41.789Z,14.70
2024-01-18T03:43:31.864Z,14.71
2024-01-18T03:44:21.841Z,14.70
2024-01-18T03:45:11.914Z,14.71
2024-01-18T03:46:01.984Z,14.69
2024-01-18T03:46:51.979Z,14.70
2024-01-18T03:47:43.504Z,14.70
2024-01-18T03:48:32.179Z,14.68
2024-01-18T03:49:22.202Z,14.69
2024-01-18T03:50:12.247Z,14.69
2024-01-18T03:51:02.339Z,14.70
2024-01-18T03:51:52.469Z,14.69
2024-01-18T03:52:42.535Z,14.70
2024-01-18T03:53:32.609Z,14.69
2024-01-18T03:54:22.710Z,14.69
2024-01-18T03:55:12.674Z,14.69
2024-01-18T03:56:02.752Z,14.69
2024-01-18T03:56:52.813Z,14.69
2024-01-18T03:57:42.910Z,14.69
2024-01-18T03:58:32.942Z,14.69
2024-01-18T03:59:22.972Z,14.69
2024-01-18T04:00:13.069Z,14.70
2024-01-18T04:01:04.246Z,14.70
2024-01-18T04:01:53.195Z,14.70
2024-01-18T04:02:43.262Z,14.70
2024-01-18T04:03:33.410Z,14.69
2024-01-18T04:04:23.415Z,14.70
2024-01-18T04:05:13.496Z,14.69
2024-01-18T04:06:03.729Z,14.69
2024-01-18T04:06:53.786Z,14.69
2024-01-18T04:07:43.813Z,14.71
2024-01-18T04:08:33.843Z,14.73
2024-01-18T04:09:23.926Z,14.74
2024-01-18T04:10:13.920Z,14.74
2024-01-18T04:11:03.955Z,14.73
2024-01-18T04:11:53.987Z,14.73
2024-01-18T04:12:44.109Z,14.72
2024-01-18T04:13:34.187Z,14.71
2024-01-18T04:14:25.265Z,14.72
2024-01-18T04:15:14.292Z,14.72
2024-01-18T04:16:04.320Z,14.72
2024-01-18T04:16:54.328Z,14.72
2024-01-18T04:17:44.477Z,14.71
2024-01-18T04:18:34.607Z,14.72
2024-01-18T04:19:24.660Z,14.71
2024-01-18T04:20:14.788Z,14.71
2024-01-18T04:21:04.914Z,14.72
2024-01-18T04:21:54.898Z,14.71
2024-01-18T04:22:45.007Z,14.72
2024-01-18T04:23:35.068Z,14.72
2024-01-18T04:24:25.147Z,14.71
2024-01-18T04:25:15.172Z,14.70
2024-01-18T04:26:05.240Z,14.72
2024-01-18T04:26:55.271Z,14.72
2024-01-18T04:27:45.430Z,14.72
2024-01-18T04:28:35.454Z,14.72
2024-01-18T04:29:25.677Z,14.72
2024-01-18T04:30:15.766Z,14.73
2024-01-18T04:31:05.746Z,14.71
2024-01-18T04:31:55.776Z,14.71
2024-01-18T04:32:45.876Z,14.71
2024-01-18T04:33:36.000Z,14.72
2024-01-18T04:34:26.004Z,14.72
2024-01-18T04:35:16.114Z,14.71
2024-01-18T04:36:06.152Z,14.72
2024-01-18T04:36:56.150Z,14.71
2024-01-18T04:37:46.222Z,14.72
2024-01-18T04:38:36.528Z,14.71
2024-01-18T04:39:26.614Z,14.71
2024-01-18T04:40:16.621Z,14.72
2024-01-18T04:41:06.699Z,14.71
2024-01-18T04:41:56.745Z,14.71
2024-01-18T04:42:46.797Z,14.70
2024-01-18T04:43:36.825Z,14.72
2024-01-18T04:44:26.866Z,14.71
2024-01-18T04:45:17.004Z,14.71
2024-01-18T04:46:07.020Z,14.71
2024-01-18T04:46:57.081Z,14.70
2024-01-18T04:47:47.426Z,14.72
2024-01-18T04:48:37.507Z,14.71
2024-01-18T04:49:27.524Z,14.70
2024-01-18T04:50:17.528Z,14.70
2024-01-18T04:51:07.625Z,14.71
2024-01-18T04:51:57.630Z,14.71
2024-01-18T04:52:47.697Z,14.71
2024-01-18T04:53:37.758Z,14.72
2024-01-18T04:54:27.876Z,14.72
2024-01-18T04:55:17.889Z,14.71
2024-01-18T04:56:07.980Z,14.73
2024-01-18T04:56:58.029Z,14.73
2024-01-18T04:57:48.153Z,14.74
2024-01-18T04:58:39.422Z,14.73
2024-01-18T04:59:28.194Z,14.71
2024-01-18T05:00:18.296Z,14.72
2024-01-18T05:01:08.423Z,14.73
2024-01-18T05:01:58.358Z,14.73
2024-01-18T05:02:48.391Z,14.73
2024-01-18T05:03:38.531Z,14.73
2024-01-18T05:04:28.620Z,14.72
2024-01-18T05:05:18.712Z,14.74
2024-01-18T05:06:09.045Z,14.72
2024-01-18T05:06:59.064Z,14.72
2024-01-18T05:07:49.044Z,14.72
2024-01-18T05:08:39.047Z,14.73
2024-01-18T05:09:29.136Z,14.73
2024-01-18T05:10:19.162Z,14.74
2024-01-18T05:11:09.244Z,14.73
2024-01-18T05:11:59.307Z,14.74
2024-01-18T05:12:49.387Z,14.73
2024-01-18T05:13:39.428Z,14.74
2024-01-18T05:14:29.456Z,14.73
2024-01-18T05:15:19.569Z,14.72
2024-01-18T05:16:09.573Z,14.73
2024-01-18T05:16:59.609Z,14.74
2024-01-18T05:17:49.738Z,14.74
2024-01-18T05:18:39.786Z,14.73
2024-01-18T05:19:29.866Z,14.73
2024-01-18T05:20:19.876Z,14.73
2024-01-18T05:21:09.971Z,14.74
2024-01-18T05:21:59.995Z,14.74
2024-01-18T05:22:50.036Z,14.73
2024-01-18T05:23:40.058Z,14.73
2024-01-18T05:24:30.205Z,14.74
2024-01-18T05:25:20.150Z,14.74
2024-01-18T05:26:10.367Z,14.75
2024-01-18T05:27:00.415Z,14.74
2024-01-18T05:27:50.407Z,14.73
2024-01-18T05:28:40.389Z,14.73
2024-01-18T05:29:30.428Z,14.73
2024-01-18T05:30:20.518Z,14.74
2024-01-18T05:31:10.557Z,14.74
2024-01-18T05:32:00.611Z,14.74
2024-01-18T05:32:50.744Z,14.73
2024-01-18T05:33:40.787Z,14.73
2024-01-18T05:34:30.957Z,14.73
2024-01-18T05:35:20.871Z,14.73
2024-01-18T05:36:10.915Z,14.73
2024-01-18T05:37:00.919Z,14.74
2024-01-18T05:37:50.962Z,14.73
2024-01-18T05:38:42.267Z,14.72
2024-01-18T05:39:31.201Z,14.73
2024-01-18T05:40:21.169Z,14.72
2024-01-18T05:41:11.253Z,14.71
2024-01-18T05:42:01.326Z,14.72
2024-01-18T05:42:51.391Z,14.72
2024-01-18T05:43:41.428Z,14.73
2024-01-18T05:44:31.461Z,14.73
2024-01-18T05:45:21.506Z,14.74
2024-01-18T05:46:11.623Z,14.72
2024-01-18T05:47:01.694Z,14.73
2024-01-18T05:47:51.777Z,14.73
2024-01-18T05:48:41.883Z,14.72
2024-01-18T05:49:31.913Z,14.72
2024-01-18T05:50:21.914Z,14.72
2024-01-18T05:51:11.994Z,14.73
2024-01-18T05:52:02.025Z,14.72
2024-01-18T05:52:52.208Z,14.72
2024-01-18T05:53:42.221Z,14.72
2024-01-18T05:54:32.340Z,14.72
2024-01-18T05:55:22.289Z,14.73
2024-01-18T05:56:12.325Z,14.73
2024-01-18T05:57:02.429Z,14.74
2024-01-18T05:57:52.421Z,14.73
2024-01-18T05:58:45.498Z,14.73
2024-01-18T05:59:32.541Z,14.71
2024-01-18T06:00:23.493Z,14.73
2024-01-18T06:01:12.697Z,14.71
2024-01-18T06:02:02.686Z,14.74
2024-01-18T06:02:52.758Z,14.73
2024-01-18T06:03:42.974Z,14.74
2024-01-18T06:04:32.945Z,14.74
2024-01-18T06:05:22.946Z,14.74
2024-01-18T06:06:13.109Z,14.74
2024-01-18T06:07:03.290Z,14.74
2024-01-18T06:07:53.173Z,14.74
2024-01-18T06:08:43.243Z,14.73
2024-01-18T06:09:33.419Z,14.72
2024-01-18T06:10:23.342Z,14.72
2024-01-18T06:11:13.354Z,14.74
2024-01-18T06:12:03.387Z,14.71
2024-01-18T06:12:53.521Z,14.72
2024-01-18T06:13:43.556Z,14.73
2024-01-18T06:14:34.658Z,14.73
2024-01-18T06:15:23.793Z,14.73
2024-01-18T06:16:13.738Z,14.73
2024-01-18T06:17:03.757Z,14.73
2024-01-18T06:17:53.829Z,14.74
2024-01-18T06:18:44.265Z,14.72
2024-01-18T06:19:34.309Z,14.72
2024-01-18T06:20:24.178Z,14.71
2024-01-18T06:21:14.285Z,14.72
2024-01-18T06:22:04.288Z,14.72
2024-01-18T06:22:54.337Z,14.73
2024-01-18T06:23:44.377Z,14.72
2024-01-18T06:24:34.545Z,14.71
2024-01-18T06:25:24.462Z,14.72
2024-01-18T06:26:14.585Z,14.72
2024-01-18T06:27:04.641Z,14.72
2024-01-18T06:27:54.648Z,14.73
2024-01-18T06:28:44.698Z,14.73
2024-01-18T06:29:34.735Z,14.74
2024-01-18T06:30:24.810Z,14.73
2024-01-18T06:31:14.820Z,14.73
2024-01-18T06:32:07.392Z,14.73
2024-01-18T06:32:54.927Z,14.72
2024-01-18T06:33:45.023Z,14.72
2024-01-18T06:34:35.098Z,14.73
2024-01-18T06:35:25.071Z,14.72
2024-01-18T06:36:15.157Z,14.72
2024-01-18T06:37:05.167Z,14.71
2024-01-18T06:37:55.208Z,14.72
2024-01-18T06:38:45.280Z,14.71
2024-01-18T06:39:35.293Z,14.71
2024-01-18T06:40:25.313Z,14.71
2024-01-18T06:41:15.386Z,14.71
2024-01-18T06:42:05.471Z,14.71
2024-01-18T06:42:55.462Z,14.73
2024-01-18T06:43:45.542Z,14.72
2024-01-18T06:44:35.537Z,14.72
2024-01-18T06:45:25.663Z,14.72
2024-01-18T06:46:15.626Z,14.71
2024-01-18T06:47:05.719Z,14.71
2024-01-18T06:47:55.785Z,14.72
2024-01-18T06:48:45.839Z,14.72
2024-01-18T06:49:35.926Z,14.73
2024-01-18T06:50:25.931Z,14.71
2024-01-18T06:51:16.049Z,14.72
2024-01-18T06:52:06.037Z,14.70
2024-01-18T06:52:56.082Z,14.70
2024-01-18T06:53:46.149Z,14.72
2024-01-18T06:54:36.231Z,14.71
2024-01-18T06:55:26.224Z,14.73
2024-01-18T06:56:16.345Z,14.73
2024-01-18T06:57:06.401Z,14.72
2024-01-18T06:57:56.446Z,14.71
2024-01-18T06:58:46.468Z,14.71
2024-01-18T06:59:36.504Z,14.70
2024-01-18T07:00:26.568Z,14.70
2024-01-18T07:01:16.706Z,14.70
2024-01-18T07:02:06.648Z,14.71
2024-01-18T07:02:56.762Z,14.70
2024-01-18T07:03:46.948Z,14.71
2024-01-18T07:04:36.932Z,14.71
2024-01-18T07:05:26.907Z,14.70
2024-01-18T07:06:16.993Z,14.70
2024-01-18T07:07:07.038Z,14.71
2024-01-18T07:07:57.063Z,14.72
2024-01-18T07:08:47.126Z,14.70
2024-01-18T07:09:37.182Z,14.71
2024-01-18T07:10:27.199Z,14.71
2024-01-18T07:11:17.289Z,14.72
2024-01-18T07:12:07.374Z,14.70
2024-01-18T07:12:57.404Z,14.70
2024-01-18T07:13:47.485Z,14.72
2024-01-18T07:14:37.503Z,14.72
2024-01-18T07:15:27.558Z,14.71
2024-01-18T07:16:17.610Z,14.71
2024-01-18T07:17:07.633Z,14.70
2024-01-18T07:17:57.731Z,14.70
2024-01-18T07:18:47.808Z,14.70
2024-01-18T07:19:40.455Z,14.69
2024-01-18T07:20:27.874Z,14.68
2024-01-18T07:21:17.952Z,14.68
2024-01-18T07:22:07.958Z,14.69
2024-01-18T07:22:58.031Z,14.69
2024-01-18T07:23:48.125Z,14.69
2024-01-18T07:24:38.174Z,14.69
2024-01-18T07:25:28.213Z,14.68
2024-01-18T07:26:18.385Z,14.69
2024-01-18T07:27:08.470Z,14.68
2024-01-18T07:27:58.505Z,14.68
2024-01-18T07:28:48.611Z,14.69
2024-01-18T07:29:38.661Z,14.70
2024-01-18T07:30:28.684Z,14.69
2024-01-18T07:31:18.725Z,14.70
2024-01-18T07:32:08.817Z,14.71
2024-01-18T07:32:58.887Z,14.70
2024-01-18T07:33:48.907Z,14.70
2024-01-18T07:34:39.036Z,14.70
2024-01-18T07:35:28.917Z,14.70
2024-01-18T07:36:19.028Z,14.69
2024-01-18T07:37:10.829Z,14.69
2024-01-18T07:37:59.056Z,14.68
2024-01-18T07:38:49.115Z,14.68
2024-01-18T07:39:39.245Z,14.68
2024-01-18T07:40:29.213Z,14.69
2024-01-18T07:41:19.257Z,14.69
2024-01-18T07:42:09.355Z,14.70
2024-01-18T07:42:59.429Z,14.69
2024-01-18T07:43:49.444Z,14.70
2024-01-18T07:44:39.493Z,14.69
2024-01-18T07:45:29.611Z,14.68
2024-01-18T07:46:19.580Z,14.69
2024-01-18T07:47:09.620Z,14.70
2024-01-18T07:47:59.725Z,14.68
2024-01-18T07:48:49.862Z,14.70
2024-01-18T07:49:39.880Z,14.70
2024-01-18T07:50:35.447Z,14.70
2024-01-18T07:51:20.967Z,14.68
2024-01-18T07:52:09.966Z,14.69
2024-01-18T07:53:00.050Z,14.69
2024-01-18T07:53:50.123Z,14.70
2024-01-18T07:54:40.209Z,14.69
2024-01-18T07:55:30.615Z,14.68
2024-01-18T07:56:20.284Z,14.69
2024-01-18T07:57:10.462Z,14.68
2024-01-18T07:58:00.514Z,14.69
2024-01-18T07:58:50.615Z,14.69
2024-01-18T07:59:40.637Z,14.69
2024-01-18T08:00:30.728Z,14.69
2024-01-18T08:01:20.809Z,14.70
2024-01-18T08:02:10.798Z,14.68
2024-01-18T08:03:00.813Z,14.68
2024-01-18T08:03:51.012Z,14.70
2024-01-18T08:04:40.980Z,14.70
2024-01-18T08:05:31.078Z,14.69
2024-01-18T08:06:21.137Z,14.70
2024-01-18T08:07:11.095Z,14.69
2024-01-18T08:08:01.124Z,14.69
2024-01-18T08:08:51.202Z,14.69
2024-01-18T08:09:41.310Z,14.69
2024-01-18T08:10:31.373Z,14.69
2024-01-18T08:11:21.415Z,14.69
2024-01-18T08:12:11.451Z,14.68
2024-01-18T08:13:01.533Z,14.68
2024-01-18T08:13:51.604Z,14.69
2024-01-18T08:14:41.653Z,14.68
2024-01-18T08:15:31.769Z,14.68
2024-01-18T08:16:21.763Z,14.68
2024-01-18T08:17:11.842Z,14.69
2024-01-18T08:18:01.969Z,14.69
2024-01-18T08:18:52.058Z,14.69
2024-01-18T08:19:42.112Z,14.69
2024-01-18T08:20:32.080Z,14.68
2024-01-18T08:21:22.134Z,14.68
2024-01-18T08:22:12.139Z,14.68
2024-01-18T08:23:02.186Z,14.68
2024-01-18T08:23:52.348Z,14.68
2024-01-18T08:24:42.509Z,14.69
2024-01-18T08:25:32.469Z,14.69
2024-01-18T08:26:22.537Z,14.68
2024-01-18T08:27:12.582Z,14.69
2024-01-18T08:28:02.743Z,14.68
2024-01-18T08:28:52.735Z,14.68
2024-01-18T08:29:42.763Z,14.69
2024-01-18T08:30:32.973Z,14.69
2024-01-18T08:31:22.917Z,14.69
2024-01-18T08:32:12.947Z,14.69
2024-01-18T08:33:03.177Z,14.69
2024-01-18T08:33:53.210Z,14.68
2024-01-18T08:34:45.715Z,14.69
2024-01-18T08:35:33.210Z,14.67
2024-01-18T08:36:23.354Z,14.67
2024-01-18T08:37:13.479Z,14.67
2024-01-18T08:38:03.377Z,14.67
2024-01-18T08:38:53.418Z,14.68
2024-01-18T08:39:43.489Z,14.68
2024-01-18T08:40:33.484Z,14.68
2024-01-18T08:41:23.533Z,14.69
2024-01-18T08:42:13.585Z,14.67
2024-01-18T08:43:03.614Z,14.69
2024-01-18T08:43:53.663Z,14.69
2024-01-18T08:44:43.702Z,14.68
2024-01-18T08:45:33.789Z,14.69
2024-01-18T08:46:23.873Z,14.69
2024-01-18T08:47:14.203Z,14.69
2024-01-18T08:48:04.074Z,14.69
2024-01-18T08:48:54.099Z,14.69
2024-01-18T08:49:44.079Z,14.70
2024-01-18T08:50:34.085Z,14.70
2024-01-18T08:51:24.204Z,14.69
2024-01-18T08:52:14.295Z,14.68
2024-01-18T08:53:04.347Z,14.68
2024-01-18T08:53:54.403Z,14.68
2024-01-18T08:54:44.569Z,14.70
2024-01-18T08:55:34.482Z,14.69
2024-01-18T08:56:29.814Z,14.69
2024-01-18T08:57:17.818Z,14.69
2024-01-18T08:58:04.868Z,14.67
2024-01-18T08:58:54.930Z,14.68
2024-01-18T08:59:44.956Z,14.69
2024-01-18T09:00:35.392Z,14.69
2024-01-18T09:01:25.379Z,14.69
2024-01-18T09:02:22.854Z,14.68
2024-01-18T09:03:06.496Z,14.66
2024-01-18T09:03:55.652Z,14.67
2024-01-18T09:04:48.520Z,14.67
2024-01-18T09:05:35.665Z,14.66
2024-01-18T09:06:25.777Z,14.68
2024-01-18T09:07:15.836Z,14.68
2024-01-18T09:08:06.705Z,14.69
2024-01-18T09:08:56.231Z,14.68
2024-01-18T09:09:46.876Z,14.68
2024-01-18T09:10:36.296Z,14.68
2024-01-18T09:11:26.318Z,14.69
2024-01-18T09:12:16.373Z,14.69
2024-01-18T09:13:06.408Z,14.69
2024-01-18T09:13:56.501Z,14.69
2024-01-18T09:14:46.548Z,14.68
2024-01-18T09:15:36.813Z,14.68
2024-01-18T09:16:26.769Z,14.70
2024-01-18T09:17:16.829Z,14.69
2024-01-18T09:18:06.988Z,14.70
2024-01-18T09:19:06.328Z,14.70
2024-01-18T09:19:48.134Z,14.68
2024-01-18T09:20:37.053Z,14.68
2024-01-18T09:21:27.132Z,14.68
2024-01-18T09:22:17.121Z,14.69
2024-01-18T09:23:12.968Z,14.68
2024-01-18T09:23:58.287Z,14.68
2024-01-18T09:24:47.400Z,14.68
2024-01-18T09:25:37.355Z,14.69
2024-01-18T09:26:27.431Z,14.69
2024-01-18T09:27:17.514Z,14.69
2024-01-18T09:28:07.560Z,14.69
2024-01-18T09:28:57.600Z,14.69
2024-01-18T09:29:47.812Z,14.69
2024-01-18T09:30:39.686Z,14.69
2024-01-18T09:31:35.786Z,14.69
2024-01-18T09:32:18.963Z,14.67
2024-01-18T09:33:08.090Z,14.68
2024-01-18T09:33:58.115Z,14.68
2024-01-18T09:34:48.151Z,14.68
2024-01-18T09:35:38.330Z,14.69
2024-01-18T09:36:28.378Z,14.69
2024-01-18T09:37:18.326Z,14.69
2024-01-18T09:38:08.497Z,14.69
2024-01-18T09:38:58.532Z,14.70
2024-01-18T09:39:48.741Z,14.69
2024-01-18T09:40:38.646Z,14.69
2024-01-18T09:41:28.694Z,14.69
2024-01-18T09:42:18.788Z,14.69
2024-01-18T09:43:08.775Z,14.69
2024-01-18T09:43:58.811Z,14.69
2024-01-18T09:44:48.989Z,14.69
2024-01-18T09:45:39.007Z,14.69
2024-01-18T09:46:29.103Z,14.70
2024-01-18T09:47:19.129Z,14.69
2024-01-18T09:48:09.321Z,14.70
2024-01-18T09:49:02.103Z,14.70
2024-01-18T09:49:50.358Z,14.68
2024-01-18T09:50:39.391Z,14.67
2024-01-18T09:51:29.623Z,14.68
2024-01-18T09:52:19.519Z,14.70
2024-01-18T09:53:09.601Z,14.70
2024-01-18T09:53:59.650Z,14.70
2024-01-18T09:54:49.726Z,14.71
2024-01-18T09:55:39.803Z,14.71
2024-01-18T09:56:29.932Z,14.71
2024-01-18T09:57:19.977Z,14.71
2024-01-18T09:58:09.979Z,14.71
2024-01-18T09:59:00.023Z,14.70
2024-01-18T09:59:50.060Z,14.71
2024-01-18T10:00:40.186Z,14.71
2024-01-18T10:01:30.161Z,14.70
2024-01-18T10:02:20.213Z,14.70
2024-01-18T10:03:10.319Z,14.70
2024-01-18T10:04:00.367Z,14.70
2024-01-18T10:04:50.365Z,14.70
2024-01-18T10:05:40.489Z,14.70
2024-01-18T10:06:30.547Z,14.71
2024-01-18T10:07:20.626Z,14.71
2024-01-18T10:08:10.791Z,14.70
2024-01-18T10:09:00.682Z,14.71
2024-01-18T10:09:50.815Z,14.70
2024-01-18T10:10:40.828Z,14.70
2024-01-18T10:11:30.872Z,14.69
2024-01-18T10:12:20.972Z,14.69
2024-01-18T10:13:10.980Z,14.69
2024-01-18T10:14:01.010Z,14.69
2024-01-18T10:14:51.093Z,14.70
2024-01-18T10:15:41.193Z,14.69
2024-01-18T10:16:31.210Z,14.70
2024-01-18T10:17:21.244Z,14.70
2024-01-18T10:18:11.430Z,14.70
2024-01-18T10:19:01.393Z,14.70
2024-01-18T10:19:51.528Z,14.70
2024-01-18T10:20:41.481Z,14.71
2024-01-18T10:21:31.534Z,14.70
2024-01-18T10:22:21.703Z,14.71
2024-01-18T10:23:11.899Z,14.70
2024-01-18T10:24:01.839Z,14.71
2024-01-18T10:24:52.244Z,14.72
2024-01-18T10:25:42.226Z,14.72
2024-01-18T10:26:32.264Z,14.71
2024-01-18T10:27:22.415Z,14.71
2024-01-18T10:28:12.401Z,14.71
2024-01-18T10:29:04.632Z,14.72
2024-01-18T10:29:52.505Z,14.71
2024-01-18T10:30:42.585Z,14.72
2024-01-18T10:31:32.875Z,14.73
2024-01-18T10:32:22.824Z,14.73
2024-01-18T10:33:12.915Z,14.73
2024-01-18T10:34:03.046Z,14.72
2024-01-18T10:34:53.100Z,14.70
2024-01-18T10:35:43.034Z,14.72
2024-01-18T10:36:33.177Z,14.71
2024-01-18T10:37:23.098Z,14.72
2024-01-18T10:38:13.168Z,14.73
2024-01-18T10:39:03.304Z,14.73
2024-01-18T10:39:53.358Z,14.73
2024-01-18T10:40:43.373Z,14.72
2024-01-18T10:41:33.391Z,14.72
2024-01-18T10:42:23.466Z,14.72
2024-01-18T10:43:13.505Z,14.71
2024-01-18T10:44:03.545Z,14.72
2024-01-18T10:44:53.612Z,14.72